createdAt,value
2022-09-15T00:00:27.222Z,98877.69
2022-09-15T00:02:54.727Z,98872.47
2022-09-15T00:05:22.255Z,98870.19
2022-09-15T00:07:49.725Z,98879.91
2022-09-15T00:10:17.608Z,98883.28
2022-09-15T00:12:45.544Z,98885.56
2022-09-15T00:15:15.004Z,98887.03
2022-09-15T00:17:49.489Z,98880.59
2022-09-15T00:20:17.774Z,98873.34
2022-09-15T00:22:45.271Z,98883.47
2022-09-15T00:25:13.846Z,98885.94
2022-09-15T00:27:41.893Z,98880.63
2022-09-15T00:30:10.294Z,98877.81
2022-09-15T00:32:37.814Z,98884.03
2022-09-15T00:35:07.258Z,98879.31
2022-09-15T00:37:34.943Z,98872.16
2022-09-15T00:40:03.002Z,98878.66
2022-09-15T00:42:30.612Z,98876.03
2022-09-15T00:45:00.535Z,98879.25
2022-09-15T00:47:40.985Z,98885.13
2022-09-15T00:50:13.950Z,98883.66
2022-09-15T00:52:47.074Z,98884.97
2022-09-15T00:55:20.535Z,98880.81
2022-09-15T00:57:53.486Z,98883.16
2022-09-15T01:00:22.973Z,98881.09
2022-09-15T01:02:51.344Z,98880.25
2022-09-15T01:05:23.528Z,98879.22
2022-09-15T01:07:57.173Z,98874.13
2022-09-15T01:10:27.772Z,98869.91
2022-09-15T01:12:57.591Z,98875.69
2022-09-15T01:15:33.154Z,98868.19
2022-09-15T01:18:15.834Z,98871.06
2022-09-15T01:21:09.915Z,98875.28
2022-09-15T01:24:03.099Z,98877.66
2022-09-15T01:26:52.578Z,98872.22
2022-09-15T01:30:04.689Z,98876.00
2022-09-15T01:32:59.471Z,98873.19
2022-09-15T01:35:35.828Z,98866.78
2022-09-15T01:38:09.956Z,98883.78
2022-09-15T01:40:42.856Z,98873.34
2022-09-15T01:43:11.724Z,98878.38
2022-09-15T01:45:43.210Z,98877.78
2022-09-15T01:48:12.293Z,98870.38
2022-09-15T01:50:52.088Z,98858.25
2022-09-15T01:53:22.727Z,98863.03
2022-09-15T01:55:55.531Z,98872.53
2022-09-15T01:58:23.437Z,98870.91
2022-09-15T02:00:57.787Z,98869.78
2022-09-15T02:03:34.982Z,98870.75
2022-09-15T02:06:07.871Z,98870.34
2022-09-15T02:08:42.717Z,98870.22
2022-09-15T02:11:16.458Z,98873.63
2022-09-15T02:13:54.051Z,98875.56
2022-09-15T02:16:23.178Z,98879.88
2022-09-15T02:19:17.626Z,98877.63
2022-09-15T02:21:58.117Z,98873.97
2022-09-15T02:24:33.637Z,98875.19
2022-09-15T02:27:03.400Z,98885.19
2022-09-15T02:29:36.069Z,98885.25
2022-09-15T02:32:07.375Z,98876.78
2022-09-15T02:34:41.297Z,98878.69
2022-09-15T02:37:10.648Z,98877.78
2022-09-15T02:39:41.809Z,98877.50
2022-09-15T02:42:10.794Z,98885.63
2022-09-15T02:44:38.400Z,98881.16
2022-09-15T02:47:06.180Z,98877.09
2022-09-15T02:49:33.673Z,98885.50
2022-09-15T02:52:02.801Z,98879.47
2022-09-15T02:54:30.352Z,98876.00
2022-09-15T02:56:59.995Z,98878.16
2022-09-15T02:59:47.485Z,98873.91
2022-09-15T03:02:15.066Z,98868.88
2022-09-15T03:04:42.660Z,98874.34
2022-09-15T03:07:11.534Z,98879.88
2022-09-15T03:09:39.050Z,98882.72
2022-09-15T03:12:07.087Z,98882.88
2022-09-15T03:14:35.384Z,98888.38
2022-09-15T03:17:02.989Z,98899.91
2022-09-15T03:19:30.946Z,98898.22
2022-09-15T03:21:58.715Z,98891.75
2022-09-15T03:24:27.801Z,98896.97
2022-09-15T03:26:55.297Z,98890.72
2022-09-15T03:29:22.985Z,98892.97
2022-09-15T03:31:50.554Z,98892.34
2022-09-15T03:34:18.221Z,98893.75
2022-09-15T03:36:45.715Z,98886.47
2022-09-15T03:39:14.062Z,98891.31
2022-09-15T03:41:42.897Z,98886.63
2022-09-15T03:44:10.399Z,98895.84
2022-09-15T03:46:37.869Z,98895.19
2022-09-15T03:49:06.421Z,98898.41
2022-09-15T03:51:33.916Z,98895.19
2022-09-15T03:54:01.422Z,98895.34
2022-09-15T03:56:31.246Z,98895.50
2022-09-15T03:59:01.575Z,98900.41
2022-09-15T04:01:29.995Z,98897.97
2022-09-15T04:03:57.832Z,98899.78
2022-09-15T04:06:26.475Z,98890.84
2022-09-15T04:08:54.920Z,98899.66
2022-09-15T04:11:23.590Z,98896.31
2022-09-15T04:13:51.434Z,98888.91
2022-09-15T04:16:23.019Z,98886.75
2022-09-15T04:18:51.354Z,98890.47
2022-09-15T04:21:21.105Z,98894.13
2022-09-15T04:23:49.131Z,98894.13
2022-09-15T04:26:21.692Z,98896.91
2022-09-15T04:28:49.197Z,98895.78
2022-09-15T04:31:18.175Z,98896.97
2022-09-15T04:33:48.060Z,98899.06
2022-09-15T04:36:17.509Z,98896.97
2022-09-15T04:38:45.652Z,98894.22
2022-09-15T04:41:14.045Z,98892.78
2022-09-15T04:43:41.614Z,98897.41
2022-09-15T04:46:09.250Z,98894.94
2022-09-15T04:48:37.677Z,98898.41
2022-09-15T04:51:08.702Z,98900.16
2022-09-15T04:53:37.051Z,98893.81
2022-09-15T04:56:05.763Z,98897.50
2022-09-15T04:58:37.283Z,98897.97
2022-09-15T05:01:08.748Z,98894.69
2022-09-15T05:03:37.295Z,98896.38
2022-09-15T05:06:08.279Z,98898.19
2022-09-15T05:08:36.400Z,98901.81
2022-09-15T05:11:06.095Z,98903.63
2022-09-15T05:13:34.744Z,98897.88
2022-09-15T05:16:06.826Z,98903.00
2022-09-15T05:18:34.794Z,98905.88
2022-09-15T05:21:03.454Z,98906.56
2022-09-15T05:23:34.197Z,98912.75
2022-09-15T05:26:03.550Z,98917.56
2022-09-15T05:28:33.736Z,98913.63
2022-09-15T05:31:01.335Z,98909.31
2022-09-15T05:33:28.886Z,98908.72
2022-09-15T05:35:58.552Z,98914.84
2022-09-15T05:38:27.265Z,98921.44
2022-09-15T05:41:02.305Z,98923.44
2022-09-15T05:43:31.040Z,98917.84
2022-09-15T05:45:58.548Z,98911.50
2022-09-15T05:48:26.049Z,98917.84
2022-09-15T05:50:55.095Z,98914.28
2022-09-15T05:53:23.444Z,98918.59
2022-09-15T05:55:57.235Z,98918.31
2022-09-15T05:58:24.996Z,98920.38
2022-09-15T06:00:53.199Z,98921.00
2022-09-15T06:03:21.747Z,98919.44
2022-09-15T06:05:49.688Z,98927.28
2022-09-15T06:08:17.658Z,98924.47
2022-09-15T06:10:45.209Z,98929.13
2022-09-15T06:13:14.846Z,98928.75
2022-09-15T06:15:42.439Z,98939.16
2022-09-15T06:18:09.942Z,98931.13
2022-09-15T06:20:37.486Z,98944.47
2022-09-15T06:23:04.958Z,98937.88
2022-09-15T06:25:32.549Z,98937.03
2022-09-15T06:28:00.013Z,98941.19
2022-09-15T06:30:28.942Z,98947.59
2022-09-15T06:32:56.551Z,98953.00
2022-09-15T06:35:24.115Z,98956.22
2022-09-15T06:37:51.634Z,98950.25
2022-09-15T06:40:19.248Z,98950.81
2022-09-15T06:42:46.881Z,98958.75
2022-09-15T06:45:14.442Z,98964.94
2022-09-15T06:47:43.269Z,98959.06
2022-09-15T06:50:10.901Z,98958.94
2022-09-15T06:52:38.391Z,98964.25
2022-09-15T06:55:06.327Z,98963.66
2022-09-15T06:57:34.202Z,98965.97
2022-09-15T07:00:02.020Z,98972.72
2022-09-15T07:02:29.582Z,98975.47
2022-09-15T07:04:58.836Z,98981.13
2022-09-15T07:07:26.327Z,98982.25
2022-09-15T07:09:53.874Z,98990.25
2022-09-15T07:12:21.347Z,98988.38
2022-09-15T07:14:48.878Z,98989.56
2022-09-15T07:17:16.371Z,98997.50
2022-09-15T07:19:45.246Z,98993.53
2022-09-15T07:22:14.089Z,98994.97
2022-09-15T07:24:41.616Z,98993.03
2022-09-15T07:27:09.531Z,99004.19
2022-09-15T07:29:38.194Z,98996.16
2022-09-15T07:32:06.731Z,99001.03
2022-09-15T07:34:34.291Z,98996.63
2022-09-15T07:37:01.875Z,99000.09
2022-09-15T07:39:33.074Z,99008.09
2022-09-15T07:42:00.581Z,99007.53
2022-09-15T07:44:28.086Z,99000.34
2022-09-15T07:46:55.602Z,99012.31
2022-09-15T07:49:23.100Z,99016.59
2022-09-15T07:51:50.626Z,99015.84
2022-09-15T07:54:22.012Z,99009.63
2022-09-15T07:56:51.794Z,99017.81
2022-09-15T07:59:19.318Z,99016.72
2022-09-15T08:01:46.934Z,99018.16
2022-09-15T08:04:14.480Z,99019.56
2022-09-15T08:06:41.972Z,99006.09
2022-09-15T08:09:14.452Z,99009.09
2022-09-15T08:11:42.610Z,99010.91
2022-09-15T08:14:11.507Z,99016.03
2022-09-15T08:16:39.494Z,99019.00
2022-09-15T08:19:07.053Z,99040.84
2022-09-15T08:21:34.589Z,99030.22
2022-09-15T08:24:02.260Z,99036.75
2022-09-15T08:26:30.961Z,99041.41
2022-09-15T08:28:59.353Z,99036.44
2022-09-15T08:31:28.348Z,99047.09
2022-09-15T08:33:56.735Z,99051.19
2022-09-15T08:36:27.420Z,99051.06
2022-09-15T08:38:54.916Z,99052.22
2022-09-15T08:41:26.770Z,99060.44
2022-09-15T08:44:02.749Z,99059.00
2022-09-15T08:46:37.712Z,99061.69
2022-09-15T08:49:07.240Z,99066.94
2022-09-15T08:51:41.816Z,99070.09
2022-09-15T08:54:16.613Z,99059.88
2022-09-15T08:56:45.222Z,99065.22
2022-09-15T08:59:15.749Z,99071.91
2022-09-15T09:01:53.789Z,99066.09
2022-09-15T09:04:37.494Z,99070.22
2022-09-15T09:07:15.423Z,99070.59
2022-09-15T09:09:50.115Z,99079.97
2022-09-15T09:12:46.499Z,99082.25
2022-09-15T09:15:24.479Z,99082.25
2022-09-15T09:18:12.555Z,99083.81
2022-09-15T09:20:48.233Z,99076.84
2022-09-15T09:23:19.224Z,99085.75
2022-09-15T09:25:47.295Z,99085.09
2022-09-15T09:28:28.995Z,99081.28
2022-09-15T09:31:00.400Z,99078.59
2022-09-15T09:33:32.324Z,99088.38
2022-09-15T09:36:02.318Z,99085.53
2022-09-15T09:38:32.734Z,99083.94
2022-09-15T09:41:02.627Z,99088.59
2022-09-15T09:43:31.423Z,99077.09
2022-09-15T09:45:59.338Z,99075.91
2022-09-15T09:48:30.429Z,99090.16
2022-09-15T09:50:57.975Z,99085.31
2022-09-15T09:53:29.027Z,99087.34
2022-09-15T09:56:16.752Z,99088.66
2022-09-15T09:58:44.636Z,99089.72
2022-09-15T10:01:14.285Z,99092.97
2022-09-15T10:03:45.107Z,99076.16
2022-09-15T10:06:14.828Z,99073.78
2022-09-15T10:09:05.166Z,99073.06
2022-09-15T10:11:42.009Z,99072.47
2022-09-15T10:14:19.870Z,99073.06
2022-09-15T10:16:58.073Z,99075.03
2022-09-15T10:19:27.798Z,99072.69
2022-09-15T10:21:55.897Z,99068.38
2022-09-15T10:24:34.144Z,99059.88
2022-09-15T10:27:27.006Z,99070.78
2022-09-15T10:29:55.491Z,99065.06
2022-09-15T10:32:26.008Z,99064.28
2022-09-15T10:35:18.101Z,99061.59
2022-09-15T10:37:59.676Z,99069.16
2022-09-15T10:40:34.024Z,99072.00
2022-09-15T10:43:16.547Z,99067.88
2022-09-15T10:45:48.724Z,99075.50
2022-09-15T10:48:43.739Z,99066.81
2022-09-15T10:51:27.748Z,99065.81
2022-09-15T10:54:13.353Z,99075.50
2022-09-15T10:56:44.062Z,99069.66
2022-09-15T10:59:27.552Z,99080.63
2022-09-15T11:02:13.142Z,99087.19
2022-09-15T11:05:04.696Z,99091.47
2022-09-15T11:07:43.188Z,99088.38
2022-09-15T11:10:19.024Z,99100.22
2022-09-15T11:13:01.457Z,99100.50
2022-09-15T11:15:42.630Z,99104.03
2022-09-15T11:18:43.336Z,99107.41
2022-09-15T11:21:21.947Z,99106.97
2022-09-15T11:23:58.142Z,99103.03
2022-09-15T11:26:31.072Z,99107.69
2022-09-15T11:29:04.963Z,99106.69
2022-09-15T11:31:38.976Z,99107.00
2022-09-15T11:34:12.684Z,99114.44
2022-09-15T11:36:45.691Z,99109.38
2022-09-15T11:39:21.349Z,99102.56
2022-09-15T11:41:56.361Z,99107.38
2022-09-15T11:44:25.936Z,99116.59
2022-09-15T11:47:11.484Z,99112.63
2022-09-15T11:49:43.730Z,99115.75
2022-09-15T11:52:33.717Z,99120.59
2022-09-15T11:55:13.761Z,99128.69
2022-09-15T11:57:47.194Z,99123.59
2022-09-15T12:00:16.911Z,99124.28
2022-09-15T12:02:51.185Z,99124.59
2022-09-15T12:05:23.823Z,99124.03
2022-09-15T12:07:56.309Z,99116.53
2022-09-15T12:10:31.353Z,99109.09
2022-09-15T12:13:01.760Z,99114.63
2022-09-15T12:15:29.834Z,99116.19
2022-09-15T12:18:27.430Z,99125.84
2022-09-15T12:21:02.678Z,99117.97
2022-09-15T12:23:34.769Z,99118.13
2022-09-15T12:26:14.673Z,99116.03
2022-09-15T12:28:54.162Z,99115.69
2022-09-15T12:31:39.311Z,99110.78
2022-09-15T12:34:36.018Z,99117.91
2022-09-15T12:37:13.908Z,99114.47
2022-09-15T12:39:42.981Z,99111.66
2022-09-15T12:42:20.654Z,99118.63
2022-09-15T12:44:53.188Z,99111.09
2022-09-15T12:47:26.467Z,99116.38
2022-09-15T12:49:58.927Z,99115.34
2022-09-15T12:52:26.782Z,99114.72
2022-09-15T12:54:57.869Z,99118.56
2022-09-15T12:57:29.254Z,99121.97
2022-09-15T13:00:28.742Z,99121.97
2022-09-15T13:02:56.700Z,99111.03
2022-09-15T13:06:10.197Z,99111.41
2022-09-15T13:08:49.126Z,99114.81
2022-09-15T13:11:20.201Z,99109.06
2022-09-15T13:13:52.568Z,99108.78
2022-09-15T13:16:27.432Z,99105.09
2022-09-15T13:19:06.318Z,99115.34
2022-09-15T13:21:37.395Z,99108.38
2022-09-15T13:24:15.178Z,99115.91
2022-09-15T13:26:45.071Z,99112.13
2022-09-15T13:29:16.161Z,99109.44
2022-09-15T13:31:53.363Z,99100.53
2022-09-15T13:35:13.251Z,99111.03
2022-09-15T13:40:59.219Z,99091.81
2022-09-15T13:44:00.758Z,99095.47
2022-09-15T13:46:40.370Z,99087.28
2022-09-15T13:49:32.784Z,99091.25
2022-09-15T13:52:08.118Z,99087.88
2022-09-15T13:54:35.645Z,99084.59
2022-09-15T13:57:05.005Z,99083.16
2022-09-15T13:59:34.706Z,99079.84
2022-09-15T14:02:02.462Z,99076.94
2022-09-15T14:04:32.389Z,99067.50
2022-09-15T14:07:02.093Z,99075.81
2022-09-15T14:09:33.110Z,99069.16
2022-09-15T14:12:06.133Z,99063.41
2022-09-15T14:14:38.318Z,99065.03
2022-09-15T14:17:06.223Z,99064.84
2022-09-15T14:19:35.978Z,99069.13
2022-09-15T14:22:24.729Z,99065.41
2022-09-15T14:24:53.824Z,99071.47
2022-09-15T14:27:25.458Z,99067.94
2022-09-15T14:29:57.559Z,99070.47
2022-09-15T14:32:27.815Z,99081.19
2022-09-15T14:34:58.026Z,99076.53
2022-09-15T14:37:28.426Z,99080.38
2022-09-15T14:39:58.060Z,99090.16
2022-09-15T14:42:30.547Z,99084.78
2022-09-15T14:48:01.153Z,99089.19
2022-09-15T14:50:32.979Z,99092.34
2022-09-15T14:53:05.188Z,99087.28
2022-09-15T14:55:36.417Z,99079.63
2022-09-15T14:58:09.554Z,99090.38
2022-09-15T15:00:44.042Z,99088.19
2022-09-15T15:03:24.577Z,99082.41
2022-09-15T15:06:02.791Z,99084.69
2022-09-15T15:08:38.457Z,99086.38
2022-09-15T15:11:10.665Z,99082.94
2022-09-15T15:13:43.215Z,99081.09
2022-09-15T15:16:19.559Z,99084.19
2022-09-15T15:18:47.231Z,99080.72
2022-09-15T15:21:36.081Z,99080.34
2022-09-15T15:24:09.887Z,99083.81
2022-09-15T15:26:39.336Z,99081.72
2022-09-15T15:29:29.834Z,99072.47
2022-09-15T15:32:05.357Z,99068.28
2022-09-15T15:34:33.224Z,99072.72
2022-09-15T15:37:04.104Z,99078.22
2022-09-15T15:39:31.900Z,99078.31
2022-09-15T15:42:05.158Z,99079.63
2022-09-15T15:44:34.107Z,99084.75
2022-09-15T15:47:03.533Z,99078.53
2022-09-15T15:49:32.903Z,99086.56
2022-09-15T15:52:01.626Z,99084.25
2022-09-15T15:54:29.524Z,99076.47
2022-09-15T15:57:05.189Z,99081.13
2022-09-15T15:59:34.023Z,99062.28
2022-09-15T16:02:01.583Z,99069.81
2022-09-15T16:04:29.193Z,99071.47
2022-09-15T16:06:56.923Z,99061.09
2022-09-15T16:09:24.466Z,99068.59
2022-09-15T16:11:51.980Z,99067.56
2022-09-15T16:14:19.534Z,99073.97
2022-09-15T16:16:48.392Z,99072.69
2022-09-15T16:19:15.930Z,99071.06
2022-09-15T16:21:43.723Z,99074.16
2022-09-15T16:24:14.233Z,99071.50
2022-09-15T16:26:42.596Z,99074.38
2022-09-15T16:29:10.157Z,99068.06
2022-09-15T16:31:38.475Z,99070.66
2022-09-15T16:34:07.396Z,99081.72
2022-09-15T16:36:36.240Z,99085.13
2022-09-15T16:39:03.951Z,99088.22
2022-09-15T16:41:33.066Z,99089.19
2022-09-15T16:44:05.831Z,99090.38
2022-09-15T16:46:33.371Z,99090.78
2022-09-15T16:49:01.130Z,99095.94
2022-09-15T16:51:31.600Z,99102.72
2022-09-15T16:53:59.486Z,99106.56
2022-09-15T16:56:27.136Z,99104.59
2022-09-15T16:59:00.239Z,99104.44
2022-09-15T17:01:28.811Z,99104.88
2022-09-15T17:03:56.573Z,99112.13
2022-09-15T17:06:24.455Z,99105.56
2022-09-15T17:08:53.406Z,99101.72
2022-09-15T17:11:23.661Z,99107.53
2022-09-15T17:13:51.185Z,99116.78
2022-09-15T17:16:20.535Z,99110.25
2022-09-15T17:18:48.943Z,99113.78
2022-09-15T17:21:18.350Z,99107.56
2022-09-15T17:23:47.768Z,99115.34
2022-09-15T17:26:21.718Z,99111.09
2022-09-15T17:28:49.362Z,99112.09
2022-09-15T17:31:18.791Z,99116.09
2022-09-15T17:33:47.370Z,99112.50
2022-09-15T17:36:15.151Z,99123.72
2022-09-15T17:38:44.815Z,99115.19
2022-09-15T17:41:16.855Z,99117.34
2022-09-15T17:43:44.375Z,99111.09
2022-09-15T17:46:12.048Z,99110.50
2022-09-15T17:48:39.955Z,99114.63
2022-09-15T17:51:08.107Z,99113.06
2022-09-15T17:53:35.624Z,99114.91
2022-09-15T17:56:03.447Z,99117.44
2022-09-15T17:58:33.255Z,99117.28
2022-09-15T18:01:01.326Z,99118.56
2022-09-15T18:03:31.527Z,99114.16
2022-09-15T18:06:01.290Z,99117.16
2022-09-15T18:08:29.009Z,99119.69
2022-09-15T18:10:56.596Z,99119.41
2022-09-15T18:13:26.822Z,99123.91
2022-09-15T18:15:56.441Z,99128.75
2022-09-15T18:18:26.492Z,99129.00
2022-09-15T18:20:55.357Z,99124.50
2022-09-15T18:23:24.809Z,99122.78
2022-09-15T18:25:52.962Z,99131.00
2022-09-15T18:28:20.691Z,99137.81
2022-09-15T18:30:50.199Z,99136.56
2022-09-15T18:33:20.897Z,99140.94
2022-09-15T18:35:49.715Z,99143.50
2022-09-15T18:38:17.910Z,99139.34
2022-09-15T18:40:46.634Z,99145.88
2022-09-15T18:43:14.211Z,99144.31
2022-09-15T18:45:42.358Z,99149.69
2022-09-15T18:48:12.857Z,99145.91
2022-09-15T18:50:44.350Z,99147.31
2022-09-15T18:53:12.334Z,99155.84
2022-09-15T18:55:41.434Z,99150.56
2022-09-15T18:58:08.976Z,99152.28
2022-09-15T19:00:37.274Z,99152.41
2022-09-15T19:03:09.274Z,99157.38
2022-09-15T19:05:37.002Z,99157.97
2022-09-15T19:08:08.111Z,99159.13
2022-09-15T19:10:35.640Z,99161.41
2022-09-15T19:13:03.206Z,99165.03
2022-09-15T19:15:33.624Z,99169.28
2022-09-15T19:18:01.910Z,99169.50
2022-09-15T19:20:30.082Z,99169.53
2022-09-15T19:22:57.989Z,99169.72
2022-09-15T19:25:26.861Z,99164.66
2022-09-15T19:27:54.377Z,99168.44
2022-09-15T19:30:21.871Z,99171.31
2022-09-15T19:32:49.405Z,99174.69
2022-09-15T19:35:16.952Z,99176.41
2022-09-15T19:37:44.499Z,99174.53
2022-09-15T19:40:14.733Z,99180.94
2022-09-15T19:42:45.735Z,99175.53
2022-09-15T19:45:14.181Z,99181.91
2022-09-15T19:47:41.905Z,99172.53
2022-09-15T19:50:11.186Z,99171.75
2022-09-15T19:52:38.942Z,99173.66
2022-09-15T19:55:09.434Z,99174.97
2022-09-15T19:57:39.472Z,99181.59
2022-09-15T20:00:11.530Z,99190.13
2022-09-15T20:02:39.368Z,99185.22
2022-09-15T20:05:08.538Z,99186.50
2022-09-15T20:07:36.060Z,99186.88
2022-09-15T20:10:04.262Z,99191.13
2022-09-15T20:12:32.129Z,99190.00
2022-09-15T20:14:59.665Z,99199.56
2022-09-15T20:17:28.757Z,99208.69
2022-09-15T20:19:56.373Z,99200.28
2022-09-15T20:22:23.914Z,99197.63
2022-09-15T20:24:51.731Z,99204.50
2022-09-15T20:27:19.206Z,99204.28
2022-09-15T20:29:46.767Z,99213.25
2022-09-15T20:32:14.293Z,99205.66
2022-09-15T20:34:43.201Z,99210.66
2022-09-15T20:37:10.929Z,99206.91
2022-09-15T20:39:38.461Z,99220.09
2022-09-15T20:42:06.194Z,99217.50
2022-09-15T20:44:33.741Z,99223.56
2022-09-15T20:47:01.220Z,99222.28
2022-09-15T20:49:28.724Z,99229.94
2022-09-15T20:51:57.542Z,99216.75
2022-09-15T20:54:25.062Z,99227.25
2022-09-15T20:56:52.568Z,99229.94
2022-09-15T20:59:20.091Z,99225.50
2022-09-15T21:01:47.987Z,99228.25
2022-09-15T21:04:15.671Z,99230.81
2022-09-15T21:06:43.163Z,99231.47
2022-09-15T21:09:12.462Z,99230.22
2022-09-15T21:11:39.950Z,99237.16
2022-09-15T21:14:07.488Z,99246.38
2022-09-15T21:16:35.136Z,99236.78
2022-09-15T21:19:02.730Z,99230.19
2022-09-15T21:21:31.506Z,99229.19
2022-09-15T21:24:03.403Z,99233.44
2022-09-15T21:26:34.320Z,99227.91
2022-09-15T21:29:02.269Z,99225.16
2022-09-15T21:31:31.912Z,99234.81
2022-09-15T21:34:00.286Z,99234.72
2022-09-15T21:36:29.485Z,99246.50
2022-09-15T21:38:58.595Z,99244.88
2022-09-15T21:41:28.996Z,99251.88
2022-09-15T21:43:59.204Z,99246.78
2022-09-15T21:46:29.043Z,99241.19
2022-09-15T21:48:57.738Z,99256.63
2022-09-15T21:51:26.062Z,99245.72
2022-09-15T21:53:54.755Z,99247.22
2022-09-15T21:56:23.376Z,99243.72
2022-09-15T21:58:51.120Z,99248.84
2022-09-15T22:01:21.865Z,99239.78
2022-09-15T22:03:51.435Z,99241.88
2022-09-15T22:06:20.226Z,99244.78
2022-09-15T22:08:47.943Z,99236.72
2022-09-15T22:11:15.727Z,99234.69
2022-09-15T22:13:44.751Z,99239.38
2022-09-15T22:16:14.602Z,99235.69
2022-09-15T22:18:44.373Z,99239.56
2022-09-15T22:21:13.533Z,99240.22
2022-09-15T22:23:41.699Z,99248.75
2022-09-15T22:26:11.475Z,99248.13
2022-09-15T22:28:39.136Z,99250.66
2022-09-15T22:31:09.965Z,99256.91
2022-09-15T22:33:38.442Z,99262.81
2022-09-15T22:36:10.630Z,99261.34
2022-09-15T22:38:38.452Z,99262.09
2022-09-15T22:41:08.966Z,99257.31
2022-09-15T22:43:36.724Z,99259.53
2022-09-15T22:46:04.591Z,99255.25
2022-09-15T22:48:33.496Z,99259.78
2022-09-15T22:51:01.266Z,99266.84
2022-09-15T22:53:30.176Z,99259.50
2022-09-15T22:56:05.837Z,99264.53
2022-09-15T22:58:33.452Z,99257.94
2022-09-15T23:01:05.475Z,99267.47
2022-09-15T23:03:33.172Z,99255.03
2022-09-15T23:06:02.010Z,99255.84
2022-09-15T23:08:31.665Z,99244.63
2022-09-15T23:11:04.389Z,99258.44
2022-09-15T23:13:31.920Z,99254.91
2022-09-15T23:15:59.446Z,99251.97
2022-09-15T23:18:27.860Z,99250.88
2022-09-15T23:21:00.005Z,99248.31
2022-09-15T23:23:28.115Z,99231.09
2022-09-15T23:25:57.578Z,99238.69
2022-09-15T23:28:25.390Z,99243.03
2022-09-15T23:30:53.705Z,99245.88
2022-09-15T23:33:22.163Z,99243.78
2022-09-15T23:35:50.029Z,99240.88
2022-09-15T23:38:18.247Z,99245.47
2022-09-15T23:40:46.837Z,99245.47
2022-09-15T23:43:15.727Z,99246.13
2022-09-15T23:45:44.106Z,99248.19
2022-09-15T23:48:12.665Z,99248.41
2022-09-15T23:50:41.378Z,99251.00
2022-09-15T23:53:09.096Z,99252.59
2022-09-15T23:55:37.339Z,99253.06
2022-09-15T23:58:05.938Z,99249.53
